Time,TemperatureF,DewpointF,PressureIn,WindDirection,WindDirectionDegrees,WindSpeedMPH,WindSpeedGustMPH,Humidity,HourlyPrecipIn,Conditions,Clouds,dailyrainin,SoftwareType,DateUTC
2013-03-26 12:12:00,27.0,18.0,29.71,West,270,12.0,-999.0,68,-99.99,,,-99.99,,2013-03-26 16:12:00,
2013-03-26 12:23:00,27.0,18.0,29.71,West,270,12.0,-999.0,68,-99.99,,,-99.99,,2013-03-26 16:23:00,
2013-03-26 12:33:00,27.0,18.0,29.71,West,270,12.0,-999.0,68,-99.99,,,-99.99,,2013-03-26 16:33:00,
2013-03-26 12:42:00,27.0,18.0,29.71,West,270,12.0,-999.0,68,-99.99,,,-99.99,,2013-03-26 16:42:00,
2013-03-26 12:54:00,27.0,18.0,29.71,West,270,12.0,-999.0,68,-99.99,,,-99.99,,2013-03-26 16:54:00,
2013-03-26 13:03:00,27.0,18.0,29.71,West,270,12.0,-999.0,68,-99.99,,,-99.99,,2013-03-26 17:03:00,
2013-03-26 13:53:00,36.0,25.0,29.88,NNE,20,8.0,-999.0,64,-99.99,,,-99.99,,2013-03-26 17:53:00,
2013-03-26 14:03:00,36.0,25.0,29.88,NNE,20,8.0,-999.0,64,-99.99,,,-99.99,,2013-03-26 18:03:00,
2013-03-26 14:12:00,36.0,25.0,29.88,NNE,20,8.0,-999.0,64,-99.99,,,-99.99,,2013-03-26 18:12:00,
2013-03-26 14:53:00,41.0,28.0,29.64,NE,40,16.0,22.0,60,-99.99,,,-99.99,,2013-03-26 18:53:00,
2013-03-26 15:03:00,41.0,28.0,29.64,NE,40,16.0,22.0,60,-99.99,,,-99.99,,2013-03-26 19:03:00,
2013-03-26 15:12:00,41.0,28.0,29.64,NE,40,16.0,22.0,60,-99.99,,,-99.99,,2013-03-26 19:12:00,
2013-03-26 15:22:00,41.0,28.0,29.64,NE,40,16.0,22.0,60,-99.99,,,-99.99,,2013-03-26 19:22:00,
2013-03-26 15:32:00,41.0,28.0,29.64,NE,40,16.0,22.0,60,-99.99,,,-99.99,,2013-03-26 19:32:00,
2013-03-26 15:42:00,43.0,23.0,29.80,North,360,6.0,-999.0,45,-99.99,,,-99.99,,2013-03-26 19:42:00,
2013-03-26 15:53:00,45.0,25.0,29.80,North,10,9.0,-999.0,45,-99.99,,,-99.99,,2013-03-26 19:53:00,
2013-03-26 16:02:00,45.0,25.0,29.80,North,10,9.0,-999.0,45,-99.99,,,-99.99,,2013-03-26 20:02:00,
2013-03-26 16:13:00,45.0,23.0,29.80,NNW,340,8.0,-999.0,42,-99.99,,,-99.99,,2013-03-26 20:13:00,
2013-03-26 16:22:00,45.0,25.0,29.80,North,350,10.0,-999.0,45,-99.99,,,-99.99,,2013-03-26 20:22:00,
2013-03-26 16:32:00,45.0,23.0,29.80,North,360,6.0,-999.0,42,-99.99,,,-99.99,,2013-03-26 20:32:00,
2013-03-26 16:42:00,45.0,25.0,29.80,North,10,9.0,-999.0,45,-99.99,,,-99.99,,2013-03-26 20:42:00,
2013-03-26 16:52:00,45.0,25.0,29.80,NW,310,9.0,16.0,45,-99.99,,,-99.99,,2013-03-26 20:52:00,
2013-03-26 17:02:00,45.0,25.0,29.80,NW,310,9.0,16.0,45,-99.99,,,-99.99,,2013-03-26 21:02:00,
2013-03-26 17:12:00,45.0,25.0,29.80,NNW,340,9.0,-999.0,45,-99.99,,,-99.99,,2013-03-26 21:12:00,
2013-03-26 17:22:00,45.0,25.0,29.80,NW,310,8.0,-999.0,45,-99.99,,,-99.99,,2013-03-26 21:22:00,
2013-03-26 17:33:00,45.0,25.0,29.80,NNW,330,6.0,-999.0,45,-99.99,,,-99.99,,2013-03-26 21:33:00,
2013-03-26 17:43:00,45.0,25.0,29.80,NNW,340,9.0,-999.0,45,-99.99,,,-99.99,,2013-03-26 21:43:00,
2013-03-26 17:52:00,45.0,25.0,29.80,WNW,300,8.0,-999.0,45,-99.99,,,-99.99,,2013-03-26 21:52:00,
2013-03-26 18:02:00,45.0,25.0,29.80,WNW,300,8.0,-999.0,45,-99.99,,,-99.99,,2013-03-26 22:02:00,
2013-03-26 18:12:00,45.0,25.0,29.80,NNW,330,6.0,-999.0,45,-99.99,,,-99.99,,2013-03-26 22:12:00,
2013-03-26 18:22:00,45.0,25.0,29.81,NW,320,6.0,-999.0,45,-99.99,,,-99.99,,2013-03-26 22:22:00,
2013-03-26 18:33:00,43.0,25.0,29.81,NW,320,8.0,-999.0,48,-99.99,,,-99.99,,2013-03-26 22:33:00,
2013-03-26 18:42:00,43.0,25.0,29.81,NW,310,9.0,-999.0,48,-99.99,,,-99.99,,2013-03-26 22:42:00,
2013-03-26 18:52:00,43.0,25.0,29.81,NW,310,3.0,-999.0,48,-99.99,,,-99.99,,2013-03-26 22:52:00,
2013-03-26 19:01:00,43.0,25.0,29.81,NW,310,3.0,-999.0,48,-99.99,,,-99.99,,2013-03-26 23:01:00,
2013-03-26 19:10:00,43.0,25.0,29.81,WNW,300,5.0,-999.0,48,-99.99,,,-99.99,,2013-03-26 23:10:00,
2013-03-26 19:22:00,41.0,25.0,29.82,WNW,290,5.0,-999.0,52,-99.99,,,-99.99,,2013-03-26 23:22:00,
2013-03-26 19:32:00,41.0,25.0,29.82,WNW,290,5.0,-999.0,52,-99.99,,,-99.99,,2013-03-26 23:32:00,
2013-03-26 19:42:00,41.0,25.0,29.82,WNW,290,3.0,-999.0,52,-99.99,,,-99.99,,2013-03-26 23:42:00,
2013-03-26 19:52:00,41.0,25.0,29.82,North,0,0.0,-999.0,52,-99.99,,,-99.99,,2013-03-26 23:52:00,
2013-03-26 20:02:00,41.0,25.0,29.82,North,0,0.0,-999.0,52,-99.99,,,-99.99,,2013-03-27 00:02:00,
2013-03-26 20:12:00,37.0,25.0,29.82,WSW,240,3.0,-999.0,60,-99.99,,,-99.99,,2013-03-27 00:12:00,
2013-03-26 20:22:00,37.0,25.0,29.83,SW,230,3.0,-999.0,60,-99.99,,,-99.99,,2013-03-27 00:22:00,
2013-03-26 20:32:00,37.0,25.0,29.83,SW,230,3.0,-999.0,60,-99.99,,,-99.99,,2013-03-27 00:32:00,
2013-03-26 20:42:00,37.0,25.0,29.83,SW,230,3.0,-999.0,60,-99.99,,,-99.99,,2013-03-27 00:42:00,
2013-03-26 20:52:00,36.0,25.0,29.83,SW,230,5.0,-999.0,64,-99.99,,,-99.99,,2013-03-27 00:52:00,
2013-03-26 21:02:00,36.0,25.0,29.83,SW,230,5.0,-999.0,64,-99.99,,,-99.99,,2013-03-27 01:02:00,
2013-03-26 21:12:00,36.0,25.0,29.83,SW,220,5.0,-999.0,64,-99.99,,,-99.99,,2013-03-27 01:12:00,
2013-03-26 21:23:00,36.0,25.0,29.83,SW,230,3.0,-999.0,64,-99.99,,,-99.99,,2013-03-27 01:23:00,
2013-03-26 21:33:00,36.0,25.0,29.83,SW,230,3.0,-999.0,64,-99.99,,,-99.99,,2013-03-27 01:33:00,
2013-03-26 21:42:00,36.0,25.0,29.83,SW,230,3.0,-999.0,64,-99.99,,,-99.99,,2013-03-27 01:42:00,
2013-03-26 21:52:00,36.0,25.0,29.83,SW,230,5.0,-999.0,64,-99.99,,,-99.99,,2013-03-27 01:52:00,
2013-03-26 22:03:00,36.0,25.0,29.83,SW,230,5.0,-999.0,64,-99.99,,,-99.99,,2013-03-27 02:03:00,
2013-03-26 22:12:00,36.0,25.0,29.83,SW,230,5.0,-999.0,64,-99.99,,,-99.99,,2013-03-27 02:12:00,
2013-03-26 22:22:00,36.0,25.0,29.83,SW,230,6.0,-999.0,64,-99.99,,,-99.99,,2013-03-27 02:22:00,
2013-03-26 22:32:00,36.0,25.0,29.83,WSW,240,7.0,-999.0,64,-99.99,,,-99.99,,2013-03-27 02:32:00,
2013-03-26 22:42:00,36.0,25.0,29.83,WSW,240,6.0,-999.0,64,-99.99,,,-99.99,,2013-03-27 02:42:00,
2013-03-26 22:52:00,37.0,27.0,29.83,WSW,240,8.0,-999.0,64,-99.99,,,-99.99,,2013-03-27 02:52:00,
2013-03-26 23:02:00,37.0,27.0,29.83,WSW,240,8.0,-999.0,64,-99.99,,,-99.99,,2013-03-27 03:02:00,
2013-03-26 23:12:00,36.0,27.0,29.83,WSW,240,9.0,-999.0,69,-99.99,,,-99.99,,2013-03-27 03:12:00,
2013-03-26 23:22:00,36.0,27.0,29.83,WSW,240,8.0,-999.0,69,-99.99,,,-99.99,,2013-03-27 03:22:00,
2013-03-26 23:33:00,36.0,27.0,29.83,SW,230,8.0,-999.0,69,-99.99,,,-99.99,,2013-03-27 03:33:00,
2013-03-26 23:42:00,36.0,27.0,29.83,WSW,240,8.0,-999.0,69,-99.99,,,-99.99,,2013-03-27 03:42:00,
2013-03-26 23:52:00,36.0,27.0,29.83,SW,230,8.0,-999.0,69,-99.99,,,-99.99,,2013-03-27 03:52:00,